メインページ
METAR-TAF:

METAR-TAF

空港 :

ンジャメナ国際空港

ンジャメナ, チャド

緯度: 12-08N, 経度: 015-02E, 海抜: 295m

現時点の気象観測

当レポートは52分前の05:00(UTC)に作成
北東の風 6kt
気温 23°C
湿度 20%
気圧 1005 hPa
視程10km以上
1,500メートル以下は雲なし、積乱雲なし

METAR: FTTJ 210500Z 05006KT CAVOK 23/M01 Q1005 NOSIG

時間: 06:52 (05:52 UTC)

予報

当レポートは52分前の05:00(UTC)に作成
予報は21日の 06時(UTC)から 22日の 12時(UTC)まで有効
北/北東の風 6kt
視程: 7000m
21日の 07時(UTC)から 21日の 13時(UTC)まで一時的に
視程: 4000m
煙霧

TAF: FTTJ 210500Z 2106/2212 03006KT 7000 NSC TEMPO 2107/2113 4000 HZ

4,000以上の空港の気象観測と天気予報(METAR報とTAF報)

利用可能な観測所は地図上に黄色い丸と赤い丸で示す。

丸の上にカーソルを重ねると観測所名を参照できる。

次にクリックすると気象観測と天気予報を参照できる。

マップの切り替え:黒色「×」印の緑ボタンをクリックして拡大、「-」印の緑ボタンをクリックして縮小、緑色の三角印をクリックして隣りの地図に切り替え


METAR-TAF: